Thunder radar more information blitzortung!


Radar de pluja more information rain snow radar


Visita la nostra xarxa de llocs de meteo:

Template documentation
and downloads

And another site



No particular awareness of the weather is required.    There are no Weather-warnings

Pagina Historial Weather Underground text

Diari Resum Agost 15, 2017 Unitats:  Mètric    Imperial   Tant
« Previous Dia
SegĂźent Dia »
Diari Setmana Mensual Anual Personalitzada
  Maxima: Minima: Media:
Temperatura: -17.8 °C -8.2 °C -3.7 °C
Punt de rosada: -17.8 °C -11 °C -8.9 °C
Humitat: Humidity % 43 % 57 %
Wind Speed: 0 km/h 0 km/h 13.2 km/h
RĂ fegues de vent: 0 km/h - -
Vent:- - East
Pression baro: 0 hPa 34395 hPa -
Precipitacions: 0 mm    
Historical Graphs
 
 
Dades de taula per Agost 15, 2017
Temps Temperatura Punt de rosada Pression baro Vent Wind Speed RĂ fegues de vent Humitat Rainfall Rate (Hourly)
-17.8 °C -17.8 °C 0 hPa Calm     Humidity % 0 mm
00:00 -5.4 °C -10.1 °C 34462.7 hPa NNE 6 km/h 6 km/h 59 % 0 mm
00:05 -5.6 °C -10.1 °C 34462.7 hPa NE 4.2 km/h   60 % 0 mm
00:10 -5.6 °C -10.1 °C 34462.7 hPa NE 6 km/h 6 km/h 60 % 0 mm
00:15 -5.6 °C -9.9 °C 34462.7 hPa NE 3.1 km/h   61 % 0 mm
00:55 -8.1 °C -10.4 °C 34462.7 hPa WSW 2.6 km/h 2.6 km/h 76 % 0 mm
01:05 -8.1 °C -10.5 °C 34428.8 hPa Calm     76 % 0 mm
01:15 -8.2 °C -10.4 °C 34428.8 hPa Calm     77 % 0 mm
01:25 -8.1 °C -10.4 °C 34462.7 hPa Calm     77 % 0 mm
01:35 -8.1 °C -10.4 °C 34428.8 hPa Calm   2.6 km/h 77 % 0 mm
01:45 -8.1 °C -10.2 °C 34428.8 hPa Calm     78 % 0 mm
01:55 -8.1 °C -10.2 °C 34428.8 hPa Calm   7.7 km/h 78 % 0 mm
02:05 -8.2 °C -10.4 °C 34462.7 hPa NE 5.1 km/h 5.1 km/h 77 % 0 mm
02:15 -8.2 °C -10.7 °C 34462.7 hPa NE 2.6 km/h 7.7 km/h 75 % 0 mm
02:25 -8.1 °C -10.8 °C 34462.7 hPa NNE 2.6 km/h 7.7 km/h 73 % 0 mm
02:35 -7.9 °C -11 °C 34462.7 hPa NNE 5.1 km/h 7.7 km/h 70 % 0 mm
02:45 -7.8 °C -11 °C 34462.7 hPa North 2.6 km/h 10.3 km/h 69 % 0 mm
02:55 -7.5 °C -10.8 °C 34462.7 hPa Calm   5.1 km/h 68 % 0 mm
03:05 -7.7 °C -10.9 °C 34462.7 hPa WSW 5.1 km/h 7.7 km/h 69 % 0 mm
03:15 -7.8 °C -10.7 °C 34462.7 hPa SW 2.6 km/h 7.7 km/h 71 % 0 mm
03:25 -7.7 °C -10.5 °C 34462.7 hPa WSW 5.1 km/h 5.1 km/h 72 % 0 mm
03:35 -7.3 °C -10.1 °C 34462.7 hPa SW 2.6 km/h 5.1 km/h 73 % 0 mm
03:45 -6.9 °C -10.1 °C 34462.7 hPa East 7.7 km/h 10.3 km/h 69 % 0 mm
03:55 -6.4 °C -9.9 °C 34462.7 hPa NNE 2.6 km/h 10.3 km/h 67 % 0 mm
04:05 -6.3 °C -10.2 °C 34462.7 hPa North 5.1 km/h 10.3 km/h 64 % 0 mm
04:15 -6.1 °C -10.3 °C 34462.7 hPa North 5.1 km/h 7.7 km/h 62 % 0 mm
04:25 -6.1 °C -10.5 °C 34462.7 hPa NNE 5.1 km/h 15.6 km/h 60 % 0 mm
04:35 -6.1 °C -10.7 °C 34462.7 hPa NNE 12.9 km/h 20.8 km/h 59 % 0 mm
04:45 -5.7 °C -10.4 °C 34462.7 hPa NNE 7.7 km/h 10.3 km/h 58 % 0 mm
04:55 -5.5 °C -10.6 °C 34462.7 hPa NNE 7.7 km/h 15.6 km/h 56 % 0 mm
05:05 -5.2 °C -10.4 °C 34462.7 hPa NNE 5.1 km/h 12.9 km/h 55 % 0 mm
05:15 -4.9 °C -10.3 °C 34462.7 hPa NNE 7.7 km/h 15.6 km/h 54 % 0 mm
05:25 -4.7 °C -10.3 °C 34462.7 hPa NNE 7.7 km/h 7.7 km/h 53 % 0 mm
05:35 -4.4 °C -10.2 °C 34462.7 hPa NNE 12.9 km/h 12.9 km/h 52 % 0 mm
05:45 -4.2 °C -10.2 °C 34462.7 hPa NE 7.7 km/h 12.9 km/h 51 % 0 mm
10:52 -3.5 °C -9.9 °C 34496.6 hPa East 9 km/h 9 km/h 49 % 0 mm
10:53 -3.5 °C -9.9 °C 34496.6 hPa ESE 9.8 km/h 9.8 km/h 49 % 0 mm
10:58 -3.6 °C -9.9 °C 34496.6 hPa NE 12.2 km/h 12.2 km/h 49 % 0 mm
11:03 -3.6 °C -9.9 °C 34462.7 hPa NNW 6 km/h 6 km/h 49 % 0 mm
11:08 -3.4 °C -9.8 °C 34462.7 hPa NE 11.9 km/h 11.9 km/h 49 % 0 mm
11:13 -3.3 °C -9.9 °C 34462.7 hPa ESE 6.3 km/h 7.6 km/h 48 % 0 mm
11:18 -2.9 °C -9.5 °C 34462.7 hPa ENE 9.3 km/h 9.3 km/h 48 % 0 mm
11:23 -2.9 °C -9.5 °C 34462.7 hPa SE 12.7 km/h 12.7 km/h 48 % 0 mm
11:28 -2.9 °C -9.6 °C 34462.7 hPa ESE 17.9 km/h 17.9 km/h 48 % 0 mm
11:33 -2.9 °C -9.5 °C 34462.7 hPa ENE 11.9 km/h 11.9 km/h 48 % 0 mm
11:38 -2.8 °C -9.6 °C 34462.7 hPa East 6.8 km/h 6.8 km/h 47 % 0 mm
11:43 -2.6 °C -9.6 °C 34462.7 hPa East 11.9 km/h 11.9 km/h 46 % 0 mm
11:48 -2.5 °C -9.6 °C 34462.7 hPa East 12.7 km/h 12.7 km/h 46 % 0 mm
11:53 -2.4 °C -9.4 °C 34462.7 hPa ENE 11.9 km/h 11.9 km/h 46 % 0 mm
11:58 -2.5 °C -9.3 °C 34462.7 hPa East 9.8 km/h 9.8 km/h 47 % 0 mm
12:03 -2.1 °C -9.2 °C 34462.7 hPa East 15 km/h 15 km/h 46 % 0 mm
12:08 -2.1 °C -9.2 °C 34462.7 hPa SE 11.9 km/h 11.9 km/h 46 % 0 mm
12:13 -1.7 °C -9.2 °C 34462.7 hPa South 15 km/h 15 km/h 44 % 0 mm
12:18 -1.6 °C -9.1 °C 34462.7 hPa ENE 15 km/h 15 km/h 44 % 0 mm
12:23 -2.1 °C -9.5 °C 34462.7 hPa ESE 23.8 km/h 23.8 km/h 44 % 0 mm
12:28 -1.9 °C -9.4 °C 34462.7 hPa SE 15 km/h 15 km/h 44 % 0 mm
12:33 -1.9 °C -9.3 °C 34462.7 hPa East 20.9 km/h 20.9 km/h 44 % 0 mm
12:38 -1.8 °C -9.3 °C 34462.7 hPa ESE 20.9 km/h 20.9 km/h 44 % 0 mm
12:43 -1.7 °C -9.3 °C 34462.7 hPa SE 11.9 km/h 11.9 km/h 43 % 0 mm
12:48 -1.6 °C -9.1 °C 34496.6 hPa NE 15 km/h 15 km/h 44 % 0 mm
12:53 -1.7 °C -9.2 °C 34496.6 hPa ESE 23.8 km/h 23.8 km/h 44 % 0 mm
12:58 -1.4 °C -8.9 °C 34462.7 hPa ESE 20.9 km/h 20.9 km/h 44 % 0 mm
13:03 -1.5 °C -8.8 °C 34462.7 hPa ESE 26.9 km/h 26.9 km/h 45 % 0 mm
13:08 -1.5 °C -8.8 °C 34462.7 hPa ENE 20.9 km/h 20.9 km/h 45 % 0 mm
13:13 -1.6 °C -8.7 °C 34462.7 hPa North 25.9 km/h 25.9 km/h 46 % 0 mm
13:18 -1.4 °C -8.3 °C 34462.7 hPa SSE 20.9 km/h 20.9 km/h 47 % 0 mm
13:23 -1.3 °C -8.3 °C 34462.7 hPa ESE 17.9 km/h 17.9 km/h 47 % 0 mm
13:28 -1.7 °C -8.6 °C 34462.7 hPa ESE 28.2 km/h 28.2 km/h 47 % 0 mm
13:33 -1.9 °C -8.4 °C 34462.7 hPa ESE 32.8 km/h 32.8 km/h 49 % 0 mm
13:38 -1.9 °C -8.4 °C 34462.7 hPa SE 26.9 km/h 26.9 km/h 49 % 0 mm
13:43 -1.8 °C -8.2 °C 34462.7 hPa ESE 29.8 km/h 29.8 km/h 50 % 0 mm
13:48 -2 °C -8.3 °C 34462.7 hPa ESE 26.9 km/h 26.9 km/h 50 % 0 mm
13:53 -1.9 °C -8.4 °C 34462.7 hPa East 37.5 km/h 37.5 km/h 49 % 0 mm
13:58 -2.2 °C -8.8 °C 34496.6 hPa ESE 38.8 km/h 38.8 km/h 48 % 0 mm
14:03 -1.9 °C -8.8 °C 34496.6 hPa SSW 23.8 km/h 23.8 km/h 47 % 0 mm
14:08 -1.9 °C -9 °C 34496.6 hPa SSE 26.9 km/h 26.9 km/h 46 % 0 mm
14:13 -2.1 °C -8.9 °C 34462.7 hPa SSE 35.7 km/h 35.7 km/h 47 % 0 mm
14:18 -1.9 °C -9 °C 34462.7 hPa ESE 26.9 km/h 26.9 km/h 46 % 0 mm
14:23 -2.1 °C -8.9 °C 34462.7 hPa East 23.8 km/h 23.8 km/h 47 % 0 mm
14:28 -2.2 °C -9.1 °C 34428.8 hPa ESE 32.8 km/h 32.8 km/h 47 % 0 mm
14:33 -2.1 °C -8.8 °C 34428.8 hPa NNE 26.9 km/h 26.9 km/h 48 % 0 mm
14:35 -2.1 °C -9 °C 34428.8 hPa ESE 39.9 km/h 39.9 km/h 47 % 0 mm
14:40 -2.3 °C -9.1 °C 34428.8 hPa ESE 29.8 km/h 29.8 km/h 47 % 0 mm
14:45 -2.2 °C -8.9 °C 34462.7 hPa SSE 20.9 km/h 20.9 km/h 48 % 0 mm
14:50 -1.9 °C -8.6 °C 34462.7 hPa SSE 25.1 km/h 25.1 km/h 48 % 0 mm
14:55 -2.2 °C -8.9 °C 34462.7 hPa ESE 32.8 km/h 32.8 km/h 48 % 0 mm
15:00 -2.3 °C -8.8 °C 34462.7 hPa SSE 23.8 km/h 23.8 km/h 49 % 0 mm
15:05 -2.3 °C -8.8 °C 34462.7 hPa ENE 29.8 km/h 29.8 km/h 49 % 0 mm
15:10 -2 °C -8.5 °C 34462.7 hPa ESE 23.8 km/h 23.8 km/h 49 % 0 mm
15:15 -2.1 °C -8.8 °C 34462.7 hPa ENE 32.8 km/h 32.8 km/h 48 % 0 mm
15:20 -2.1 °C -8.8 °C 34462.7 hPa ENE 29.8 km/h 29.8 km/h 48 % 0 mm
15:25 -2 °C -8.7 °C 34462.7 hPa ESE 23.8 km/h 23.8 km/h 48 % 0 mm
15:30 -2.3 °C -9.1 °C 34428.8 hPa ENE 29.8 km/h 29.8 km/h 47 % 0 mm
15:35 -2.2 °C -8.9 °C 34428.8 hPa East 29.8 km/h 29.8 km/h 48 % 0 mm
15:40 -2.2 °C -8.9 °C 34428.8 hPa ENE 38.8 km/h 38.8 km/h 48 % 0 mm
15:45 -2.3 °C -8.9 °C 34428.8 hPa East 20.9 km/h 20.9 km/h 48 % 0 mm
15:50 -2.4 °C -9.1 °C 34428.8 hPa ESE 20.9 km/h 20.9 km/h 48 % 0 mm
15:55 -2.3 °C -9 °C 34428.8 hPa East 32.8 km/h 32.8 km/h 48 % 0 mm
16:00 -2.4 °C -9.1 °C 34428.8 hPa ENE 32.8 km/h 32.8 km/h 48 % 0 mm
16:05 -2.4 °C -9.1 °C 34428.8 hPa East 15 km/h 15 km/h 48 % 0 mm
16:10 -2.6 °C -9.4 °C 34428.8 hPa ENE 17.9 km/h 17.9 km/h 47 % 0 mm
16:15 -2.6 °C -9.4 °C 34428.8 hPa East 15 km/h 15 km/h 47 % 0 mm
16:20 -2.5 °C -9.3 °C 34428.8 hPa NE 23.8 km/h 23.8 km/h 47 % 0 mm
16:25 -2.4 °C -9.2 °C 34428.8 hPa East 15 km/h 15 km/h 47 % 0 mm
16:30 -2.2 °C -9.1 °C 34428.8 hPa ENE 20.9 km/h 20.9 km/h 47 % 0 mm
16:35 -2.1 °C -9 °C 34428.8 hPa ENE 23.8 km/h 23.8 km/h 47 % 0 mm
16:40 -2.2 °C -8.9 °C 34428.8 hPa NNE 17.9 km/h 17.9 km/h 48 % 0 mm
16:45 -2.3 °C -9 °C 34395 hPa ESE 20.9 km/h 20.9 km/h 48 % 0 mm
16:50 -2.2 °C -8.9 °C 34395 hPa ESE 17.9 km/h 17.9 km/h 48 % 0 mm
16:55 -2.2 °C -8.9 °C 34395 hPa ESE 15 km/h 15 km/h 48 % 0 mm
17:00 -2.1 °C -8.8 °C 34395 hPa ENE 17.9 km/h 17.9 km/h 48 % 0 mm
17:05 -2.1 °C -8.8 °C 34395 hPa SSW 17.9 km/h 17.9 km/h 48 % 0 mm
17:10 -2.2 °C -8.7 °C 34395 hPa ESE 15.3 km/h 15.3 km/h 49 % 0 mm
17:11 -2.2 °C -8.7 °C 34395 hPa ESE 15 km/h 15 km/h 49 % 0 mm
17:16 -2.4 °C -8.9 °C 34395 hPa ESE 10.3 km/h 10.3 km/h 49 % 0 mm
17:21 -2.4 °C -8.8 °C 34395 hPa ENE 26.9 km/h 26.9 km/h 50 % 0 mm
17:26 -2.4 °C -8.5 °C 34395 hPa East 15 km/h 15 km/h 51 % 0 mm
17:31 -2.3 °C -8.5 °C 34395 hPa ESE 15 km/h 15 km/h 51 % 0 mm
17:36 -2.3 °C -8.4 °C 34395 hPa ESE 15 km/h 15 km/h 51 % 0 mm
17:41 -2.3 °C -8.5 °C 34395 hPa SE 15 km/h 15 km/h 51 % 0 mm
17:46 -2.3 °C -8.4 °C 34395 hPa SSE 9 km/h 9 km/h 51 % 0 mm
17:51 -2.3 °C -8.3 °C 34395 hPa SE 15 km/h 15 km/h 52 % 0 mm
17:56 -2.2 °C -8.2 °C 34395 hPa SSE 9 km/h 9 km/h 52 % 0 mm
18:01 -2.2 °C -8.2 °C 34395 hPa ESE 17.9 km/h 17.9 km/h 52 % 0 mm
18:06 -2.3 °C -8.3 °C 34395 hPa SSW 11.9 km/h 11.9 km/h 52 % 0 mm
18:11 -2.2 °C -8.2 °C 34395 hPa SW 15 km/h 15 km/h 52 % 0 mm
18:16 -2.2 °C -8.2 °C 34395 hPa SSE 15 km/h 15 km/h 52 % 0 mm
18:21 -2.4 °C -8.5 °C 34395 hPa SE 9 km/h 9 km/h 51 % 0 mm
18:26 -2.4 °C -8.7 °C 34395 hPa SSE 15 km/h 15 km/h 50 % 0 mm
18:31 -2.4 °C -8.9 °C 34395 hPa SSE 15 km/h 15 km/h 49 % 0 mm
18:36 -2.4 °C -8.9 °C 34395 hPa SW 9 km/h 9 km/h 49 % 0 mm
18:41 -2.4 °C -8.8 °C 34395 hPa ENE 3.7 km/h 3.7 km/h 50 % 0 mm
18:46 -2.3 °C -8.7 °C 34428.8 hPa SSE 11.9 km/h 11.9 km/h 50 % 0 mm
18:51 -2.4 °C -8.7 °C 34428.8 hPa East 6 km/h 6 km/h 50 % 0 mm
18:52 -2.4 °C -8.7 °C 34428.8 hPa ESE 6 km/h   50 % 0 mm
18:57 -2.4 °C -8.9 °C 34428.8 hPa East 6.8 km/h 6.8 km/h 49 % 0 mm
19:02 -2.5 °C -8.8 °C 34428.8 hPa NE 9 km/h 9 km/h 50 % 0 mm
19:07 -2.5 °C -8.8 °C 34428.8 hPa ENE 9.3 km/h 9.3 km/h 50 % 0 mm
19:12 -2.6 °C -8.8 °C 34428.8 hPa ENE 15 km/h 15 km/h 50 % 0 mm
19:17 -2.6 °C -8.8 °C 34395 hPa East 20.9 km/h 20.9 km/h 50 % 0 mm
19:22 -2.6 °C -8.7 °C 34395 hPa ENE 23.8 km/h 23.8 km/h 51 % 0 mm
19:27 -2.7 °C -8.8 °C 34395 hPa East 15 km/h 15 km/h 51 % 0 mm
19:32 -2.7 °C -8.7 °C 34395 hPa NNE 15 km/h 15 km/h 52 % 0 mm
19:37 -2.8 °C -8.1 °C 34395 hPa NE 23.8 km/h 23.8 km/h 56 % 0 mm
19:42 -2.9 °C -7.8 °C 34395 hPa ENE 26.9 km/h 26.9 km/h 59 % 0 mm
19:47 -3 °C -7.6 °C 34395 hPa SE 17.9 km/h 17.9 km/h 61 % 0 mm
19:52 -3.2 °C -7.4 °C 34395 hPa NNE 20.9 km/h 20.9 km/h 63 % 0 mm
19:57 -3.2 °C -7.6 °C 34395 hPa ESE 15.3 km/h 15.3 km/h 62 % 0 mm
20:02 -3.3 °C -7.5 °C 34395 hPa ENE 23.8 km/h 23.8 km/h 63 % 0 mm
20:07 -3.3 °C -7.5 °C 34395 hPa South 15 km/h 15 km/h 63 % 0 mm
20:12 -3.2 °C -7.6 °C 34395 hPa SE 9 km/h 9 km/h 62 % 0 mm
20:17 -3.3 °C -7.8 °C 34428.8 hPa SSE 15 km/h 15 km/h 61 % 0 mm
20:22 -3.3 °C -7.8 °C 34428.8 hPa South 9 km/h 9 km/h 61 % 0 mm
20:27 -3.3 °C -8 °C 34428.8 hPa ENE 9.3 km/h 9.3 km/h 60 % 0 mm
20:32 -3.4 °C -8 °C 34428.8 hPa ENE 6 km/h 6 km/h 60 % 0 mm
20:37 -3.4 °C -8.1 °C 34428.8 hPa ENE 8.5 km/h 8.5 km/h 60 % 0 mm
20:42 -3.5 °C -8 °C 34428.8 hPa ESE 11.9 km/h 11.9 km/h 61 % 0 mm
20:47 -3.6 °C -8.1 °C 34428.8 hPa ENE 9 km/h 9 km/h 61 % 0 mm
20:52 -3.6 °C -7.9 °C 34428.8 hPa NNE 9 km/h 9 km/h 62 % 0 mm
20:57 -3.7 °C -8 °C 34428.8 hPa NE 9 km/h 9 km/h 62 % 0 mm
21:02 -3.7 °C -8.1 °C 34428.8 hPa East 9 km/h 9 km/h 62 % 0 mm
21:07 -3.8 °C -7.9 °C 34428.8 hPa NNE 11.1 km/h 11.1 km/h 63 % 0 mm
21:12 -3.8 °C -7.9 °C 34428.8 hPa NE 11.9 km/h 11.9 km/h 64 % 0 mm
21:17 -3.9 °C -7.9 °C 34395 hPa NNE 7.6 km/h 7.6 km/h 64 % 0 mm
21:22 -3.9 °C -7.8 °C 34395 hPa NE 6.8 km/h 6.8 km/h 65 % 0 mm
21:27 -3.9 °C -7.7 °C 34395 hPa NNE 9 km/h 9 km/h 66 % 0 mm
21:32 -4 °C -7.8 °C 34395 hPa NE 9 km/h 9 km/h 66 % 0 mm
21:35 -5.4 °C -8.5 °C 34462.7 hPa North 2.6 km/h 2.6 km/h 71 % 0 mm
21:37 -4 °C -7.6 °C 34395 hPa NE 6 km/h 6 km/h 67 % 0 mm
21:42 -4.1 °C -7.7 °C 34395 hPa NNE 9 km/h 9 km/h 67 % 0 mm
21:45 -5.5 °C -8.4 °C 34496.6 hPa NNE 5.1 km/h 10.3 km/h 72 % 0 mm
21:47 -4.1 °C -7.7 °C 34395 hPa ENE 6 km/h 6 km/h 67 % 0 mm
21:52 -4.1 °C -7.7 °C 34395 hPa ENE 6 km/h 6 km/h 67 % 0 mm
21:55 -5.5 °C -8.4 °C 34496.6 hPa NE 5.1 km/h 7.7 km/h 72 % 0 mm
21:57 -4.1 °C -7.6 °C 34395 hPa NE 6 km/h 6 km/h 68 % 0 mm
22:02 -4.2 °C -7.7 °C 34428.8 hPa Calm     68 % 0 mm
22:05 -5.6 °C -8.6 °C 34462.7 hPa NE 5.1 km/h 7.7 km/h 72 % 0 mm
22:07 -4.2 °C -7.7 °C 34428.8 hPa Calm     68 % 0 mm
22:12 -4.2 °C -7.7 °C 34428.8 hPa NNW 3.1 km/h 3.1 km/h 68 % 0 mm
22:15 -5.6 °C -8.4 °C 34462.7 hPa NNE 2.6 km/h 5.1 km/h 73 % 0 mm
22:17 -4.3 °C -7.7 °C 34428.8 hPa ENE 3.1 km/h   69 % 0 mm
22:22 -4.3 °C -7.7 °C 34428.8 hPa ENE 6 km/h 6 km/h 69 % 0 mm
22:25 -5.7 °C -8.5 °C 34462.7 hPa NNE 2.6 km/h 5.1 km/h 73 % 0 mm
22:27 -4.3 °C -7.7 °C 34428.8 hPa NE 6.8 km/h 6.8 km/h 69 % 0 mm
22:32 -4.3 °C -7.7 °C 34428.8 hPa NNE 9 km/h 9.3 km/h 69 % 0 mm
22:35 -5.7 °C -8.5 °C 34462.7 hPa Calm     73 % 0 mm
22:37 -4.4 °C -7.7 °C 34428.8 hPa ENE 11.9 km/h 11.9 km/h 69 % 0 mm
22:42 -4.4 °C -7.6 °C 34428.8 hPa NE 6.8 km/h 6.8 km/h 70 % 0 mm
22:45 -5.7 °C -8.4 °C 34462.7 hPa North 2.6 km/h 5.1 km/h 74 % 0 mm
22:47 -4.4 °C -7.6 °C 34395 hPa NNE 9.8 km/h 9.8 km/h 70 % 0 mm
22:52 -4.4 °C -7.6 °C 34395 hPa NNE 2.3 km/h   70 % 0 mm
22:55 -5.6 °C -8.2 °C 34462.7 hPa North 2.6 km/h 5.1 km/h 75 % 0 mm
22:57 -4.4 °C -7.7 °C 34395 hPa NNE 6.3 km/h 6.3 km/h 70 % 0 mm
23:02 -4.5 °C -7.6 °C 34428.8 hPa NE 3.1 km/h   71 % 0 mm
23:05 -5.5 °C -7.9 °C 34462.7 hPa NE 5.1 km/h 7.7 km/h 76 % 0 mm
23:07 -4.6 °C -7.7 °C 34428.8 hPa NNW 3.1 km/h 3.1 km/h 71 % 0 mm
23:12 -4.6 °C -7.7 °C 34428.8 hPa Calm     71 % 0 mm
23:15 -5.4 °C -7.8 °C 34462.7 hPa NE 5.1 km/h 7.7 km/h 77 % 0 mm
23:17 -4.6 °C -7.6 °C 34462.7 hPa Calm     72 % 0 mm
23:22 -4.6 °C -7.6 °C 34462.7 hPa NE 9 km/h 9 km/h 72 % 0 mm
23:25 -5.6 °C -7.9 °C 34462.7 hPa NE 5.1 km/h 7.7 km/h 77 % 0 mm
23:27 -4.7 °C -7.7 °C 34462.7 hPa NNE 6.8 km/h 6.8 km/h 71 % 0 mm
23:32 -4.7 °C -7.7 °C 34428.8 hPa North 11.9 km/h 11.9 km/h 71 % 0 mm
23:35 -5.6 °C -7.9 °C 34462.7 hPa NNE 5.1 km/h 7.7 km/h 77 % 0 mm
23:37 -4.6 °C -7.8 °C 34428.8 hPa NNE 15 km/h 15 km/h 70 % 0 mm
23:42 -4.6 °C -7.8 °C 34428.8 hPa NNE 11.9 km/h 11.9 km/h 70 % 0 mm
23:45 -5.5 °C -7.7 °C 34462.7 hPa NNE 5.1 km/h 7.7 km/h 78 % 0 mm
23:47 -4.6 °C -7.9 °C 34428.8 hPa NE 17.9 km/h 17.9 km/h 69 % 0 mm
23:49 -4.6 °C -7.9 °C 34428.8 hPa ENE 15.6 km/h 15.6 km/h 69 % 0 mm
23:54 -4.6 °C -7.9 °C 34428.8 hPa NE 15 km/h 15 km/h 69 % 0 mm
23:55 -5.6 °C -7.8 °C 34462.7 hPa NNE 5.1 km/h 7.7 km/h 78 % 0 mm
23:59 -4.6 °C -8.1 °C 34428.8 hPa ENE 15 km/h 15 km/h 68 % 0 mm
Meteo Sesrovires
Elogis d' Weather Underground - 3.5 mb

Guio original per  Jim McMurry - jmcmurry@mwt.net Adaptat per a la plantilla per  Wim van der Kuil - Leuven-Template.eu

Trobareu la nostra informacio del temps tambe a:

Weather Underground

AWEKAS